Latest Weather Observations for Maatsuyker Island

IDT60801

Issued at 7:01 pm EST Wednesday 29 June 2022 (issued every 10 minutes, with the page automatically refreshed every 10 minutes)

About weather observations | Map of weather stations | Latest weather observations for TAS | Other Formats
Station Details ID: 094041 Name: MAATSUYKER ISLAND LIGHTHOUSE Lat: -43.66 Lon: 146.27 Height: 146.5 m
Data from the previous 72 hours. | See also: Recent months at Maatsuyker Island
Date/Time
EST
Temp
°C
App
Temp
°C
Dew
Point
°C
Rel
Hum
%
Delta-T
°C
Wind Press
QNH
hPa
Press
MSL
hPa
Rain since
9am
mm
Dir  Spd
km/h
Gust
km/h
Spd
kts
Gust
kts
29/07:00pm 10.6 0.6 9.5 93 0.6 WNW 52 59 28 32 1015.0 1015.2 1.2
29/06:30pm 11.0 0.3 10.4 96 0.3 WNW 57 65 31 35 1014.2 1014.4 1.2
29/06:00pm 10.7 -1.3 9.8 94 0.5 WNW 63 72 34 39 1013.8 1014.0 1.2
29/05:50pm 10.7 -1.4 9.3 91 0.7 WNW 63 70 34 38 1013.6 - 1.2
29/05:30pm 11.9 -3.2 10.1 89 0.9 NW 80 98 43 53 1011.7 1012.1 1.2
29/05:13pm 11.8 -0.7 10.5 92 0.7 NW 67 85 36 46 1012.2 1012.4 1.2
29/05:10pm 11.8 -0.7 10.5 92 0.7 NW 67 85 36 46 1012.2 - 1.2
29/05:00pm 11.7 -0.4 10.8 94 0.5 NW 65 74 35 40 1012.2 1012.4 1.2
29/04:30pm 11.3 -0.9 10.2 93 0.6 NW 65 78 35 42 1012.2 1012.4 1.0
29/04:00pm 11.0 -1.4 9.8 92 0.6 NW 65 82 35 44 1012.1 1012.3 1.0
29/03:58pm 11.1 -0.8 9.9 92 0.6 NW 63 82 34 44 1012.1 1012.3 1.0
29/03:55pm 11.1 -0.8 9.9 92 0.6 NW 63 82 34 44 1012.1 - 1.0
29/03:30pm 10.9 1.4 9.8 93 0.6 NW 50 63 27 34 1012.9 1012.9 0.8
29/03:06pm 11.0 0.6 9.1 88 1.0 NW 54 72 29 39 1012.0 1012.2 0.2
29/03:03pm 11.0 0.6 9.1 88 1.0 NNW 54 72 29 39 1012.0 - 0.2
29/03:00pm 11.1 1.0 9.0 87 1.1 NW 52 67 28 36 1012.1 1012.3 0.0
29/02:30pm 11.5 0.5 8.4 81 1.5 NW 56 72 30 39 1012.0 1012.4 0.0
29/02:24pm 11.5 0.9 8.4 81 1.5 NNW 54 72 29 39 1012.2 1012.4 0.0
29/02:21pm 11.5 0.9 8.4 81 1.5 NNW 54 72 29 39 1012.2 - 0.0
29/02:00pm 11.4 0.3 7.9 79 1.7 NNW 56 70 30 38 1012.2 1012.4 0.0
29/01:30pm 11.6 0.8 7.7 77 1.9 NW 54 70 29 38 1012.5 1013.0 0.0
29/01:14pm 11.7 0.3 7.4 75 2.1 NW 57 76 31 41 1012.7 - 0.0
29/01:00pm 11.9 1.1 7.6 75 2.1 NW 54 72 29 39 1012.9 1013.2 0.0
29/12:48pm 12.1 1.6 7.4 73 2.3 NW 52 70 28 38 1013.3 1013.5 0.0
29/12:45pm 12.1 1.6 7.4 73 2.3 NW 52 70 28 38 1013.3 - 0.0
29/12:30pm 12.0 1.9 7.5 74 2.2 NW 50 65 27 35 1013.5 1014.0 0.0
29/12:00pm 11.8 1.7 7.3 74 2.2 NW 50 65 27 35 1013.8 1014.0 0.0
29/11:46am 11.6 1.9 7.3 75 2.1 NW 48 67 26 36 1014.4 1014.6 0.0
29/11:43am 11.6 1.9 7.3 75 2.1 NW 48 67 26 36 1014.4 - 0.0
29/11:30am 11.5 4.0 7.8 78 1.8 NW 37 52 20 28 1014.9 1015.1 0.0
29/11:15am 11.2 3.2 7.3 77 1.9 NW 39 57 21 31 1015.2 1015.4 0.0
29/11:12am 11.2 3.2 7.3 77 1.9 NW 39 57 21 31 1015.2 - 0.0
29/11:00am 11.2 3.2 7.5 78 1.8 NW 39 54 21 29 1015.4 1015.6 0.0
29/10:30am 11.2 2.9 7.7 79 1.7 NW 41 59 22 32 1015.6 1015.9 0.0
29/10:28am 11.1 2.8 7.6 79 1.7 NW 41 59 22 32 1015.6 1015.9 0.0
29/10:25am 11.1 2.8 7.6 79 1.7 NW 41 59 22 32 1015.6 - 0.0
29/10:00am 10.9 2.9 7.6 80 1.6 NW 39 50 21 27 1016.0 1016.2 0.0
29/09:30am 10.8 2.4 7.5 80 1.6 NW 41 54 22 29 1016.1 1016.4 0.0
29/09:00am 10.7 3.5 7.6 81 1.5 NNW 35 50 19 27 1016.2 1016.5 1.4
29/08:30am 10.4 2.4 7.5 82 1.4 NNW 39 57 21 31 1016.0 1016.4 1.4
29/08:29am 10.4 2.4 7.6 83 1.4 NW 39 57 21 31 1016.3 1016.5 1.4
29/08:26am 10.4 2.4 7.6 83 1.4 NNW 39 57 21 31 1016.2 - 1.4
29/08:00am 10.6 2.7 7.8 83 1.4 NNW 39 54 21 29 1016.0 1016.4 1.4
29/07:30am 10.4 2.7 8.5 88 0.9 NNW 39 54 21 29 1016.6 1016.8 1.4
29/07:00am 9.8 2.0 8.4 91 0.7 NNW 39 54 21 29 1016.2 1016.6 1.4
29/06:30am 10.3 2.5 8.2 87 1.0 NNW 39 48 21 26 1016.7 1017.1 1.4
29/06:00am 10.6 3.1 8.0 84 1.3 NNW 37 48 20 26 1016.9 1017.1 1.4
29/05:30am 10.7 2.2 8.5 86 1.1 NNW 43 52 23 28 1017.0 1017.3 1.4
29/05:00am 10.8 3.0 8.4 85 1.2 NW 39 50 21 27 1017.1 1017.3 1.4
29/04:30am 10.8 3.0 8.2 84 1.3 NNW 39 48 21 26 1017.1 1017.3 1.4
29/04:00am 10.8 3.4 8.4 85 1.2 NNW 37 48 20 26 1017.4 1017.6 1.4
29/03:30am 10.9 2.4 8.5 85 1.2 NNW 43 54 23 29 1017.3 1017.5 1.4
29/03:00am 11.0 2.6 8.9 87 1.0 NNW 43 56 23 30 1017.5 1017.7 1.4
29/02:30am 11.3 2.9 9.0 86 1.2 NNW 43 56 23 30 1017.7 1017.9 1.4
29/02:00am 11.1 2.5 9.0 87 1.0 NNW 44 57 24 31 1017.8 1017.9 1.4
29/01:30am 11.3 3.0 9.2 87 1.1 NW 43 54 23 29 1017.8 1018.1 1.4
29/01:00am 11.3 3.8 9.6 89 0.9 NNW 39 50 21 27 1018.2 1018.4 1.4
29/12:30am 11.6 1.7 9.7 88 1.0 NW 52 61 28 33 1018.1 1018.3 1.4
29/12:00am 11.5 1.7 10.1 91 0.7 NW 52 63 28 34 1018.5 1018.7 1.4
 
Date/Time
EST
Temp
°C
App
Temp
°C
Dew
Point
°C
Rel
Hum
%
Delta-T
°C
Wind Press
QNH
hPa
Press
MSL
hPa
Rain since
9am
mm
Dir  Spd
km/h
Gust
km/h
Spd
kts
Gust
kts
28/11:30pm 11.5 1.7 10.2 92 0.7 NW 52 61 28 33 1018.7 1018.9 1.4
28/11:00pm 11.4 -0.4 10.5 94 0.5 NW 63 70 34 38 1018.4 1018.6 1.4
28/10:31pm 10.9 1.5 10.1 95 0.4 NW 50 69 27 37 1018.6 1018.8 1.4
28/10:30pm 11.1 2.2 10.5 96 0.3 NW 48 65 26 35 1018.5 1018.9 1.4
28/10:28pm 10.9 2.6 10.1 95 0.4 NW 44 61 24 33 1018.6 1019.1 1.4
28/10:25pm 11.1 2.9 10.5 96 0.3 NW 44 61 24 33 1018.9 - 1.2
28/10:16pm 11.0 2.0 10.4 96 0.3 NW 48 63 26 34 1019.3 1019.5 1.2
28/10:13pm 11.0 4.5 10.4 96 0.3 NNW 35 43 19 23 1019.3 - 1.2
28/10:03pm 11.0 0.3 10.4 96 0.3 NW 57 76 31 41 1018.9 1019.1 1.2
28/10:00pm 11.1 0.5 10.5 96 0.3 NW 57 70 31 38 1018.9 1019.2 1.2
28/09:30pm 10.9 1.2 10.3 96 0.3 NW 52 63 28 34 1019.5 1019.7 0.8
28/09:00pm 11.2 0.0 9.9 92 0.7 NW 59 72 32 39 1019.1 1019.3 0.0
28/08:30pm 11.0 -0.3 9.6 91 0.7 NW 59 76 32 41 1019.0 1019.1 0.0
28/08:27pm 11.8 1.0 10.0 89 0.9 NW 57 76 31 41 1019.1 1019.3 0.0
28/08:24pm 11.8 1.0 10.0 89 0.9 NW 57 76 31 41 1019.1 - 0.0
28/08:00pm 12.1 1.5 9.8 86 1.2 NW 56 61 30 33 1019.3 1019.4 0.0
28/07:30pm 12.1 1.9 10.0 87 1.1 NW 54 65 29 35 1019.3 1019.6 0.0
28/07:00pm 12.1 1.2 9.5 84 1.3 NW 57 70 31 38 1019.2 1019.3 0.0
28/06:30pm 12.1 0.9 9.8 86 1.2 NW 59 70 32 38 1019.1 1019.3 0.0
28/06:00pm 12.1 -1.2 9.8 86 1.2 NW 70 82 38 44 1018.8 1019.0 0.0
28/05:30pm 12.2 -1.0 10.1 87 1.1 NW 70 82 38 44 1018.9 1018.9 0.0
28/05:00pm 12.1 -1.6 9.8 86 1.2 NW 72 83 39 45 1018.4 1018.8 0.0
28/04:30pm 12.1 -2.3 9.8 86 1.2 NW 76 87 41 47 1018.4 1018.7 0.0
28/04:00pm 12.1 -2.0 9.8 86 1.2 NW 74 83 40 45 1018.5 1018.5 0.0
28/03:30pm 12.1 -0.9 10.2 88 1.0 NW 69 83 37 45 1018.6 1018.8 0.0
28/03:00pm 12.1 -1.5 10.2 88 1.0 NW 72 85 39 46 1018.6 1018.8 0.0
28/02:30pm 12.1 -2.0 9.7 85 1.2 NW 74 89 40 48 1018.3 1018.6 0.0
28/02:00pm 12.2 -1.1 9.8 85 1.2 NW 70 85 38 46 1018.3 1018.5 0.0
28/01:30pm 12.2 -1.5 9.9 86 1.2 NW 72 87 39 47 1018.4 1018.3 0.0
28/01:00pm 12.1 -2.3 10.0 87 1.1 NW 76 89 41 48 1018.6 1018.8 0.0
28/12:30pm 12.1 -1.3 9.5 84 1.3 NW 70 85 38 46 1018.9 - 0.0
28/12:25pm 12.0 -2.3 10.2 89 0.9 NW 76 95 41 51 1019.4 1019.6 0.0
28/12:22pm 12.0 -2.3 10.2 89 0.9 NW 76 95 41 51 1019.4 - 0.0
28/12:00pm 12.0 -3.9 9.4 84 1.3 NW 83 98 45 53 1018.9 1019.1 0.0
28/11:33am 12.0 -5.2 8.7 80 1.7 NW 89 107 48 58 1018.8 - 0.0
28/11:30am 12.1 -5.1 8.6 79 1.8 NW 89 107 48 58 1018.8 1019.0 0.0
28/11:24am 11.8 -5.0 8.8 82 1.5 NW 87 107 47 58 1019.0 1019.2 0.0
28/11:21am 11.8 -5.0 8.8 82 1.5 NW 87 107 47 58 1019.0 - 0.0
28/11:15am 11.6 -4.1 9.9 89 0.9 NW 83 104 45 56 1018.8 1019.0 0.0
28/11:12am 11.6 -5.7 9.9 89 0.9 NW 91 104 49 56 1018.8 - 0.0
28/11:00am 11.7 -1.6 9.9 89 0.9 NW 70 87 38 47 1019.2 1019.7 0.0
28/10:34am 11.8 -2.0 9.4 85 1.2 NW 72 95 39 51 1019.3 1019.5 0.0
28/10:31am 11.8 -2.0 9.4 85 1.2 NW 72 95 39 51 1019.3 - 0.0
28/10:30am 11.8 -2.0 9.5 86 1.2 NW 72 85 39 46 1019.5 1019.8 0.0
28/10:14am 11.8 -2.0 9.5 86 1.2 NW 72 91 39 49 1019.7 1019.9 0.0
28/10:11am 11.8 -2.0 9.5 86 1.2 NW 72 91 39 49 1019.7 - 0.0
28/10:00am 11.8 -1.6 9.4 85 1.2 NW 70 85 38 46 1019.4 1019.8 0.0
28/09:31am 11.7 -2.9 9.3 85 1.2 NW 76 95 41 51 1019.2 - 0.0
28/09:30am 11.6 -3.0 9.3 86 1.2 NW 76 96 41 52 1019.3 1019.5 0.0
28/09:07am 11.6 -1.7 9.2 85 1.2 NW 69 87 37 47 1019.3 1019.5 0.0
28/09:04am 11.6 -1.7 9.2 85 1.2 NW 69 87 37 47 1019.3 - 0.0
28/09:00am 11.6 -0.9 9.2 85 1.2 NW 65 82 35 44 1019.5 1019.7 1.0
28/08:37am 11.4 -2.3 8.4 82 1.5 NW 70 89 38 48 1019.7 1019.9 1.0
28/08:34am 11.4 -2.3 8.4 82 1.5 NW 70 89 38 48 1019.7 - 1.0
28/08:30am 11.4 -2.6 8.4 82 1.5 NW 72 87 39 47 1020.0 1020.0 1.0
28/08:09am 11.2 -2.1 8.9 86 1.2 NW 69 87 37 47 1019.9 1020.1 1.0
28/08:06am 11.2 -2.1 8.9 86 1.2 NW 69 87 37 47 1019.9 - 1.0
28/08:00am 11.3 -1.5 9.4 88 1.0 NW 67 83 36 45 1020.1 1020.3 1.0
28/07:30am 11.1 -3.2 8.8 86 1.1 NW 74 93 40 50 1020.1 1020.5 1.0
28/07:28am 11.4 -2.8 9.3 87 1.1 NW 74 93 40 50 1020.3 1020.5 1.0
28/07:25am 11.4 -2.8 9.3 87 1.1 NW 74 93 40 50 1020.3 - 1.0
28/07:00am 11.0 -3.5 9.4 90 0.8 NW 76 91 41 49 1019.9 1020.1 0.8
28/06:30am 11.1 -3.4 9.5 90 0.8 NW 76 96 41 52 1019.8 1019.8 0.8
28/06:08am 10.8 -3.8 9.1 89 0.9 NW 76 96 41 52 1019.7 1019.9 0.8
28/06:05am 10.8 -4.2 9.1 89 0.9 NW 78 96 42 52 1019.7 - 0.8
28/06:03am 10.7 -2.8 9.1 90 0.8 NW 70 95 38 51 1019.2 1019.4 0.8
28/06:00am 10.7 -1.1 9.1 90 0.8 NW 61 80 33 43 1019.2 1019.4 0.8
28/05:59am 10.8 -4.5 9.4 91 0.7 NW 80 93 43 50 1019.2 - 0.8
28/05:54am 10.7 0.1 9.8 94 0.5 NW 56 76 30 41 1019.8 - 0.8
28/05:30am 10.3 -0.4 9.5 95 0.4 NW 56 78 30 42 1020.1 1020.4 0.8
28/05:10am 10.4 -0.4 9.9 97 0.3 NNW 57 91 31 49 1019.6 1019.8 0.8
28/05:07am 10.4 -0.4 9.9 97 0.3 NNW 57 91 31 49 1019.6 - 0.8
28/05:04am 9.9 -0.1 9.4 97 0.3 NNW 52 72 28 39 1020.5 1020.7 0.8
28/05:01am 9.9 -0.1 9.4 97 0.3 NNW 52 72 28 39 1020.5 - 0.8
28/05:00am 9.8 -0.2 9.3 97 0.2 NNW 52 69 28 37 1020.5 1020.7 0.8
28/04:30am 9.5 -1.0 8.7 95 0.4 NW 54 69 29 37 1020.4 1020.8 0.6
28/04:08am 9.6 -0.5 8.8 95 0.4 NNW 52 70 28 38 1020.7 1020.9 0.4
28/04:05am 9.6 -0.5 8.8 95 0.4 NNW 52 70 28 38 1020.7 - 0.4
28/04:00am 9.5 -1.0 8.7 95 0.4 NNW 54 69 29 37 1020.6 1021.0 0.4
28/03:36am 9.4 0.0 8.6 95 0.4 NNW 48 70 26 38 1020.6 1020.8 0.4
28/03:33am 9.4 0.0 8.6 95 0.4 NNW 48 70 26 38 1020.6 - 0.4
28/03:30am 9.4 0.0 8.6 95 0.4 NNW 48 63 26 34 1020.9 1021.3 0.4
28/03:01am 9.2 -0.7 8.1 93 0.5 NNW 50 69 27 37 1021.1 1021.4 0.2
28/03:00am 9.3 -0.6 8.4 94 0.4 NNW 50 69 27 37 1021.1 1021.4 0.2
28/02:58am 9.2 -0.7 8.1 93 0.5 NNW 50 69 27 37 1021.1 - 0.2
28/02:30am 9.4 0.3 8.5 94 0.4 NW 46 61 25 33 1021.6 1022.0 0.2
28/02:00am 9.3 -1.0 8.1 92 0.6 NW 52 67 28 36 1021.4 1021.7 0.2
28/01:38am 9.0 -0.6 8.1 94 0.4 NW 48 67 26 36 1021.8 - 0.2
28/01:30am 9.1 -0.1 8.0 93 0.5 NNW 46 65 25 35 1021.6 1022.1 0.2
28/01:04am 9.1 -0.1 8.0 93 0.5 NW 46 65 25 35 1022.2 1022.5 0.2
28/01:01am 9.1 -0.1 8.0 93 0.5 NW 46 65 25 35 1022.2 - 0.2
28/01:00am 9.2 -0.7 8.1 93 0.5 NW 50 65 27 35 1022.2 1022.4 0.2
28/12:30am 9.2 0.0 8.0 92 0.6 NW 46 61 25 33 1022.6 1023.1 0.2
28/12:02am 9.0 0.1 7.8 92 0.6 NW 44 63 24 34 1023.2 1023.4 0.2
28/12:01am 9.2 0.0 8.0 92 0.6 NW 46 67 25 36 1023.0 - 0.2
28/12:00am 9.2 0.0 8.0 92 0.6 NW 46 63 25 34 1023.1 1023.4 0.2
 
Date/Time
EST
Temp
°C
App
Temp
°C
Dew
Point
°C
Rel
Hum
%
Delta-T
°C
Wind Press
QNH
hPa
Press
MSL
hPa
Rain since
9am
mm
Dir  Spd
km/h
Gust
km/h
Spd
kts
Gust
kts
27/11:59pm 9.0 0.1 7.8 92 0.6 NW 44 63 24 34 1023.1 - 0.2
27/11:30pm 8.8 0.1 7.9 94 0.4 NW 43 57 23 31 1023.8 1024.2 0.2
27/11:00pm 8.4 -0.5 7.6 95 0.4 NW 44 65 24 35 1024.0 1024.3 0.2
27/10:54pm 8.4 -0.5 7.6 95 0.4 NW 44 65 24 35 1024.1 1024.3 0.2
27/10:51pm 8.4 -0.5 7.6 95 0.4 NW 44 65 24 35 1024.1 - 0.2
27/10:30pm 8.6 -0.3 7.5 93 0.5 NNW 44 57 24 31 1024.1 1024.3 0.2
27/10:03pm 8.8 -0.1 6.9 88 0.9 NW 43 61 23 33 1024.4 1024.6 0.2
27/10:00pm 8.9 0.0 7.0 88 0.9 NW 43 54 23 29 1024.4 1024.8 0.2
27/09:30pm 8.6 -0.3 6.9 89 0.8 NW 43 57 23 31 1024.7 1025.1 0.2
27/09:00pm 8.9 -0.2 7.0 88 0.9 NNW 44 61 24 33 1024.8 1025.0 0.2
27/08:30pm 8.9 -0.1 6.3 84 1.2 NW 43 67 23 36 1024.9 1024.9 0.2
27/08:29pm 8.8 -0.2 6.3 84 1.2 NW 43 67 23 36 1024.9 1025.1 0.2
27/08:26pm 8.8 -0.2 6.2 84 1.2 NNW 43 67 23 36 1024.9 - 0.2
27/08:00pm 8.9 -0.4 5.8 81 1.4 NW 44 57 24 31 1024.9 1025.2 0.2
27/07:32pm 8.8 -0.3 5.7 81 1.4 NW 43 61 23 33 1025.4 1025.6 0.2
27/07:30pm 8.7 -0.5 5.6 81 1.4 NW 43 56 23 30 1025.4 1025.7 0.2
27/07:29pm 8.8 -0.3 5.7 81 1.4 NW 43 61 23 33 1025.4 - 0.2
27/07:00pm 8.7 0.3 5.8 82 1.3 NW 39 56 21 30 1025.7 1026.0 0.2
27/06:54pm 8.7 0.7 5.8 82 1.3 NW 37 56 20 30 1025.6 1025.8 0.2
27/06:51pm 8.7 0.7 5.8 82 1.3 NW 37 56 20 30 1025.6 - 0.2
27/06:30pm 8.6 0.2 5.4 80 1.5 NNW 39 50 21 27 1025.8 1025.9 0.2
27/06:00pm 8.8 0.0 5.7 81 1.4 NW 41 57 22 31 1025.8 1026.0 0.2
27/05:51pm 8.6 0.1 5.2 79 1.5 NW 39 57 21 31 1025.7 1025.9 0.2
27/05:48pm 8.6 0.1 5.2 79 1.5 NW 39 57 21 31 1025.7 - 0.2
27/05:30pm 8.8 -0.3 5.9 82 1.3 NW 43 54 23 29 1025.9 1026.2 0.2
27/05:00pm 8.4 0.7 5.5 82 1.3 NW 35 50 19 27 1026.0 1026.2 0.2
27/04:30pm 8.3 0.6 5.4 82 1.3 NW 35 44 19 24 1026.3 1026.6 0.2
27/04:00pm 8.4 0.0 5.7 83 1.2 NW 39 50 21 27 1026.6 1026.7 0.2
27/03:30pm 8.3 0.7 5.6 83 1.2 NW 35 46 19 25 1026.4 1026.6 0.2
27/03:00pm 8.4 0.7 5.2 80 1.4 NNW 35 46 19 25 1026.8 1027.1 0.2
27/02:30pm 8.8 -0.6 4.4 74 2.0 NW 43 56 23 30 1026.8 1027.1 0.2
27/02:00pm 9.1 1.3 4.9 75 1.9 NW 35 46 19 25 1026.8 1027.2 0.2
27/01:30pm 8.9 1.4 4.7 75 1.9 NW 33 44 18 24 1026.9 1027.3 0.2
27/01:00pm 8.6 1.4 4.8 77 1.7 NW 32 37 17 20 1027.2 1027.6 0.2
27/12:30pm 7.9 0.6 4.3 78 1.6 NW 32 43 17 23 1027.4 1027.7 0.2
27/12:00pm 7.7 0.8 4.5 80 1.4 NW 30 39 16 21 1027.4 1027.7 0.2
27/11:30am 7.8 1.1 3.8 76 1.7 NW 28 39 15 21 1027.8 1028.2 0.2
27/11:00am 7.7 1.8 4.1 78 1.6 NW 24 35 13 19 1028.0 1028.3 0.2
27/10:30am 7.3 0.6 3.7 78 1.6 NW 28 37 15 20 1028.5 1028.8 0.2
27/10:00am 6.8 1.9 4.1 83 1.2 NW 19 28 10 15 1028.3 1028.5 0.2
27/09:30am 6.5 1.6 4.2 85 1.0 NNW 19 28 10 15 1027.9 1028.1 0.2
27/09:00am 7.1 -0.4 3.7 79 1.5 WNW 32 39 17 21 1027.6 1027.9 4.2
27/08:30am 7.2 0.3 2.7 73 1.9 NW 28 33 15 18 1027.4 1027.6 4.2
27/08:00am 7.3 2.2 0.7 63 2.6 WSW 17 28 9 15 1027.2 1027.5 4.2
27/07:30am 7.3 1.5 -0.2 59 2.9 WSW 20 28 11 15 1026.9 1027.2 4.2
27/07:00am 7.4 1.9 0.4 61 2.8 WSW 19 24 10 13 1026.4 1026.6 4.2
27/06:30am 7.2 1.8 1.1 65 2.5 WSW 19 28 10 15 1026.1 1026.3 4.2
27/06:00am 7.2 -0.2 2.1 70 2.1 W 30 39 16 21 1026.1 1026.3 4.2
27/05:30am 7.0 1.3 0.7 64 2.5 WSW 20 28 11 15 1025.9 1026.1 4.2
27/05:00am 6.9 1.2 0.6 64 2.5 WSW 20 32 11 17 1025.6 1025.8 4.2
27/04:30am 6.8 0.4 1.1 67 2.3 SW 24 33 13 18 1025.1 1025.3 4.2
27/04:00am 6.9 1.0 1.6 69 2.1 SW 22 33 12 18 1024.9 1025.1 4.2
27/03:30am 6.7 -0.1 0.8 66 2.4 SW 26 33 14 18 1024.7 1024.9 4.2
27/03:00am 6.7 -1.0 2.2 73 1.8 SW 32 37 17 20 1024.5 1024.7 4.2
27/02:30am 6.7 -0.2 2.6 75 1.7 W 28 37 15 20 1024.3 1024.5 4.2
27/02:00am 6.3 1.1 3.6 83 1.1 SW 20 32 11 17 1024.0 1024.1 4.2
27/01:53am 6.2 1.0 3.5 83 1.1 SW 20 32 11 17 1023.9 - 4.2
27/01:30am 6.2 -2.1 4.0 86 0.9 SSW 37 52 20 28 1023.6 1023.7 4.2
27/01:28am 6.3 -1.8 3.1 80 1.3 SW 35 52 19 28 1023.5 1023.7 4.2
27/01:25am 6.3 -3.4 3.1 80 1.3 S 43 52 23 28 1023.5 - 4.2
27/01:00am 5.8 -0.9 3.5 85 1.0 WNW 28 37 15 20 1023.1 1023.4 4.2
27/12:30am 5.3 -0.7 3.3 87 0.8 WNW 24 33 13 18 1022.8 1023.2 4.2
27/12:10am 5.8 -1.8 3.1 83 1.1 SW 32 50 17 27 1023.0 1023.3 3.2
27/12:07am 5.8 -1.8 3.1 83 1.1 SW 32 50 17 27 1023.0 - 3.2
27/12:00am 5.8 -1.8 3.0 82 1.2 SW 32 41 17 22 1023.0 1023.3 3.2
 
Date/Time
EST
Temp
°C
App
Temp
°C
Dew
Point
°C
Rel
Hum
%
Delta-T
°C
Wind Press
QNH
hPa
Press
MSL
hPa
Rain since
9am
mm
Dir  Spd
km/h
Gust
km/h
Spd
kts
Gust
kts
26/11:30pm 5.6 -2.1 3.4 86 0.9 SSW 33 46 18 25 1022.6 1022.9 3.2
26/11:25pm 5.6 -2.5 3.3 85 1.0 SW 35 46 19 25 1022.5 1022.8 3.2
26/11:22pm 5.6 -2.1 3.3 85 1.0 SSW 33 44 18 24 1022.5 - 3.2
26/11:11pm 5.3 -4.9 3.2 86 0.9 SW 46 65 25 35 1022.6 1022.9 3.2
26/11:08pm 5.3 -4.9 3.2 86 0.9 SW 46 65 25 35 1022.6 - 3.2
26/11:00pm 5.2 -5.5 2.7 84 1.0 SW 48 61 26 33 1022.6 1022.8 3.2
26/10:46pm 5.3 -3.7 2.7 83 1.1 W 39 67 21 36 1022.3 1022.6 3.2
26/10:43pm 5.3 -5.8 2.7 83 1.1 SW 50 63 27 34 1022.3 - 3.2
26/10:42pm 7.1 0.0 3.3 77 1.6 W 30 50 16 27 1022.1 1022.4 3.0
26/10:39pm 7.1 0.0 3.3 77 1.6 W 30 50 16 27 1022.1 - 3.0
26/10:30pm 7.5 -0.6 3.4 75 1.8 W 35 46 19 25 1021.6 1022.0 3.0
26/10:00pm 7.0 -3.0 1.1 66 2.4 W 43 54 23 29 1021.6 1021.9 2.8
26/09:30pm 6.9 -0.3 3.2 77 1.6 W 30 41 16 22 1021.5 1021.7 2.8
26/09:21pm 6.2 -1.9 3.0 80 1.3 W 35 59 19 32 1021.4 1021.7 2.8
26/09:18pm 6.2 -1.0 3.0 80 1.3 W 30 48 16 26 1021.4 - 2.8
26/09:17pm 6.2 -4.0 3.0 80 1.3 W 46 59 25 32 1021.5 1021.8 2.8
26/09:14pm 6.2 -2.3 3.0 80 1.3 W 37 48 20 26 1021.5 - 2.8
26/09:00pm 7.0 -2.8 2.3 72 1.9 WNW 43 52 23 28 1021.2 1021.5 2.8
26/08:31pm 6.8 -2.1 2.9 76 1.6 W 39 61 21 33 1020.7 1020.9 2.2
26/08:30pm 6.0 -2.6 2.5 78 1.4 W 37 46 20 25 1020.8 1021.3 2.4
26/08:02pm 6.9 -1.9 3.5 79 1.5 WNW 39 59 21 32 1020.5 1020.7 1.6
26/08:00pm 7.3 -1.2 3.4 76 1.7 WNW 37 50 20 27 1020.6 1020.6 1.6
26/07:59pm 6.9 -1.9 3.5 79 1.5 WNW 39 59 21 32 1020.5 - 1.6
26/07:30pm 7.2 -3.4 1.1 65 2.5 W 46 57 25 31 1020.4 1020.7 1.4

Other formats

Comma delimited format used in spreadsheet applications
http://www.bom.gov.au/fwo/IDT60801/IDT60801.94962.axf

JavaScript Object Notation format (JSON) in row-major order
http://www.bom.gov.au/fwo/IDT60801/IDT60801.94962.json

Data quality

Most of these data are generated automatically and are frequently updated. Quality checks on data are not normally performed. It is possible for incorrect values to appear. Refer to information at About Latest Weather Observations and please check the disclaimer before using these data.